Stamford, South Dakota
Current Conditions -  °F | °C
As of 4:55 PM on Monday 20 Oct 2014 (Local Time) from KPHP Reporting Station
Clear Clear  
Wind Chill: 78°   Ceiling: Unl
Heat Index: 78°   Visibility: 10mi
Dew Point: 42°   Wind: 10mph
Humidity: 28%   Direction: 130°SE
Pressure: 29.9"   Gusts: NA
Location:  44.3169°N, 101.368°W
Report Text: KPHP 202255Z AUTO 13009KT 10SM CLR 26/06 A2990 RMK AO2 SLP121 T02560056
Loading
Personal Weather Stations






























Interactive Weather Map
Tropical Storm Tracking
New forecast layout! Learn more

10-Day Weather Forecast

Advertisements
Track Severe Weather on mobile